sensor_id;sensor_type;location;lat;lon;timestamp;temperature;humidity
19437;DHT22;9854;50.968;4.168;2022-11-13T00:00:19;10.20;99.90
19437;DHT22;9854;50.968;4.168;2022-11-13T00:02:44;10.00;99.90
19437;DHT22;9854;50.968;4.168;2022-11-13T00:05:10;9.70;99.90
19437;DHT22;9854;50.968;4.168;2022-11-13T00:07:35;9.60;99.90
19437;DHT22;9854;50.968;4.168;2022-11-13T00:10:01;9.50;99.90
19437;DHT22;9854;50.968;4.168;2022-11-13T00:12:28;9.40;99.90
19437;DHT22;9854;50.968;4.168;2022-11-13T00:14:53;9.40;99.90
19437;DHT22;9854;50.968;4.168;2022-11-13T00:17:19;9.30;99.90
19437;DHT22;9854;50.968;4.168;2022-11-13T00:19:44;9.30;99.90
19437;DHT22;9854;50.968;4.168;2022-11-13T00:22:10;9.30;99.90
19437;DHT22;9854;50.968;4.168;2022-11-13T00:24:36;9.30;99.90
19437;DHT22;9854;50.968;4.168;2022-11-13T00:27:01;9.30;99.90
19437;DHT22;9854;50.968;4.168;2022-11-13T00:29:27;9.30;99.90
19437;DHT22;9854;50.968;4.168;2022-11-13T00:31:52;9.30;99.90
19437;DHT22;9854;50.968;4.168;2022-11-13T00:34:18;9.20;99.90
19437;DHT22;9854;50.968;4.168;2022-11-13T00:36:44;9.20;99.90
19437;DHT22;9854;50.968;4.168;2022-11-13T00:39:09;9.20;99.90
19437;DHT22;9854;50.968;4.168;2022-11-13T00:41:35;9.20;99.90
19437;DHT22;9854;50.968;4.168;2022-11-13T00:44:00;9.30;99.90
19437;DHT22;9854;50.968;4.168;2022-11-13T00:46:28;9.50;99.90
19437;DHT22;9854;50.968;4.168;2022-11-13T00:48:54;10.00;99.90
19437;DHT22;9854;50.968;4.168;2022-11-13T00:51:20;10.30;99.90
19437;DHT22;9854;50.968;4.168;2022-11-13T00:53:46;10.30;99.90
19437;DHT22;9854;50.968;4.168;2022-11-13T00:56:11;10.10;99.90
19437;DHT22;9854;50.968;4.168;2022-11-13T00:58:37;9.80;99.90
19437;DHT22;9854;50.968;4.168;2022-11-13T01:01:12;9.50;99.90
19437;DHT22;9854;50.968;4.168;2022-11-13T01:03:38;9.20;99.90
19437;DHT22;9854;50.968;4.168;2022-11-13T01:06:11;9.10;99.90
19437;DHT22;9854;50.968;4.168;2022-11-13T01:08:37;9.00;99.90
19437;DHT22;9854;50.968;4.168;2022-11-13T01:11:11;9.00;99.90
19437;DHT22;9854;50.968;4.168;2022-11-13T01:13:38;8.90;99.90
19437;DHT22;9854;50.968;4.168;2022-11-13T01:16:06;8.80;99.90
19437;DHT22;9854;50.968;4.168;2022-11-13T01:18:32;8.80;99.90
19437;DHT22;9854;50.968;4.168;2022-11-13T01:21:03;8.80;99.90
19437;DHT22;9854;50.968;4.168;2022-11-13T01:23:29;8.70;99.90
19437;DHT22;9854;50.968;4.168;2022-11-13T01:25:54;8.70;99.90
19437;DHT22;9854;50.968;4.168;2022-11-13T01:28:20;8.70;99.90
19437;DHT22;9854;50.968;4.168;2022-11-13T01:30:45;8.80;99.90
19437;DHT22;9854;50.968;4.168;2022-11-13T01:33:11;8.80;99.90
19437;DHT22;9854;50.968;4.168;2022-11-13T01:35:36;8.80;99.90
19437;DHT22;9854;50.968;4.168;2022-11-13T01:38:02;8.90;99.90
19437;DHT22;9854;50.968;4.168;2022-11-13T01:40:28;8.80;99.90
19437;DHT22;9854;50.968;4.168;2022-11-13T01:42:53;8.80;99.90
19437;DHT22;9854;50.968;4.168;2022-11-13T01:46:01;8.80;99.90
19437;DHT22;9854;50.968;4.168;2022-11-13T01:48:39;8.80;99.90
19437;DHT22;9854;50.968;4.168;2022-11-13T01:51:17;8.80;99.90
19437;DHT22;9854;50.968;4.168;2022-11-13T01:53:46;8.70;99.90
19437;DHT22;9854;50.968;4.168;2022-11-13T01:56:14;8.70;99.90
19437;DHT22;9854;50.968;4.168;2022-11-13T01:58:42;8.60;99.90
19437;DHT22;9854;50.968;4.168;2022-11-13T02:01:08;8.60;99.90
19437;DHT22;9854;50.968;4.168;2022-11-13T02:03:34;8.60;99.90
19437;DHT22;9854;50.968;4.168;2022-11-13T02:06:00;8.50;99.90
19437;DHT22;9854;50.968;4.168;2022-11-13T02:08:26;8.60;99.90
19437;DHT22;9854;50.968;4.168;2022-11-13T02:10:52;8.60;99.90
19437;DHT22;9854;50.968;4.168;2022-11-13T02:13:18;8.60;99.90
19437;DHT22;9854;50.968;4.168;2022-11-13T02:15:45;8.60;99.90
19437;DHT22;9854;50.968;4.168;2022-11-13T02:18:13;8.60;99.90
19437;DHT22;9854;50.968;4.168;2022-11-13T02:20:50;8.50;99.90
19437;DHT22;9854;50.968;4.168;2022-11-13T02:25:52;8.40;99.90
19437;DHT22;9854;50.968;4.168;2022-11-13T02:28:18;8.40;99.90
19437;DHT22;9854;50.968;4.168;2022-11-13T02:30:44;8.40;99.90
19437;DHT22;9854;50.968;4.168;2022-11-13T02:35:46;8.30;99.90
19437;DHT22;9854;50.968;4.168;2022-11-13T02:38:12;8.30;99.90
19437;DHT22;9854;50.968;4.168;2022-11-13T02:40:37;8.10;99.90
19437;DHT22;9854;50.968;4.168;2022-11-13T02:43:04;8.00;99.90
19437;DHT22;9854;50.968;4.168;2022-11-13T02:45:29;7.90;99.90
19437;DHT22;9854;50.968;4.168;2022-11-13T02:47:55;7.80;99.90
19437;DHT22;9854;50.968;4.168;2022-11-13T02:50:21;7.80;99.90
19437;DHT22;9854;50.968;4.168;2022-11-13T02:52:46;7.80;99.90
19437;DHT22;9854;50.968;4.168;2022-11-13T02:55:12;7.90;99.90
19437;DHT22;9854;50.968;4.168;2022-11-13T02:57:37;8.00;99.90
19437;DHT22;9854;50.968;4.168;2022-11-13T03:00:04;8.10;99.90
19437;DHT22;9854;50.968;4.168;2022-11-13T03:02:30;8.20;99.90
19437;DHT22;9854;50.968;4.168;2022-11-13T03:04:55;8.20;99.90
19437;DHT22;9854;50.968;4.168;2022-11-13T03:07:21;8.10;99.90
19437;DHT22;9854;50.968;4.168;2022-11-13T03:09:46;8.20;99.90
19437;DHT22;9854;50.968;4.168;2022-11-13T03:12:12;8.20;99.90
19437;DHT22;9854;50.968;4.168;2022-11-13T03:14:38;8.20;99.90
19437;DHT22;9854;50.968;4.168;2022-11-13T03:17:03;8.10;99.90
19437;DHT22;9854;50.968;4.168;2022-11-13T03:19:29;8.00;99.90
19437;DHT22;9854;50.968;4.168;2022-11-13T03:21:55;8.00;99.90
19437;DHT22;9854;50.968;4.168;2022-11-13T03:24:20;8.00;99.90
19437;DHT22;9854;50.968;4.168;2022-11-13T03:26:46;7.90;99.90
19437;DHT22;9854;50.968;4.168;2022-11-13T03:29:12;7.90;99.90
19437;DHT22;9854;50.968;4.168;2022-11-13T03:31:37;7.90;99.90
19437;DHT22;9854;50.968;4.168;2022-11-13T03:34:03;7.90;99.90
19437;DHT22;9854;50.968;4.168;2022-11-13T03:36:29;7.70;99.90
19437;DHT22;9854;50.968;4.168;2022-11-13T03:38:54;7.70;99.90
19437;DHT22;9854;50.968;4.168;2022-11-13T03:41:21;7.70;99.90
19437;DHT22;9854;50.968;4.168;2022-11-13T03:43:47;7.70;99.90
19437;DHT22;9854;50.968;4.168;2022-11-13T03:46:13;7.70;99.90
19437;DHT22;9854;50.968;4.168;2022-11-13T03:48:38;7.90;99.90
19437;DHT22;9854;50.968;4.168;2022-11-13T03:51:04;7.90;99.90
19437;DHT22;9854;50.968;4.168;2022-11-13T03:53:30;7.90;99.90
19437;DHT22;9854;50.968;4.168;2022-11-13T03:55:56;7.90;99.90
19437;DHT22;9854;50.968;4.168;2022-11-13T03:58:21;7.90;99.90
19437;DHT22;9854;50.968;4.168;2022-11-13T04:00:48;8.10;99.90
19437;DHT22;9854;50.968;4.168;2022-11-13T04:03:13;8.10;99.90
19437;DHT22;9854;50.968;4.168;2022-11-13T04:05:41;8.40;99.90
19437;DHT22;9854;50.968;4.168;2022-11-13T04:08:07;8.50;99.90
19437;DHT22;9854;50.968;4.168;2022-11-13T04:10:32;8.50;99.90
19437;DHT22;9854;50.968;4.168;2022-11-13T04:12:58;8.50;99.90
19437;DHT22;9854;50.968;4.168;2022-11-13T04:15:24;8.20;99.90
19437;DHT22;9854;50.968;4.168;2022-11-13T04:17:49;8.10;99.90
19437;DHT22;9854;50.968;4.168;2022-11-13T04:20:15;8.30;99.90
19437;DHT22;9854;50.968;4.168;2022-11-13T04:22:41;8.40;99.90
19437;DHT22;9854;50.968;4.168;2022-11-13T04:25:07;8.30;99.90
19437;DHT22;9854;50.968;4.168;2022-11-13T04:27:34;8.20;99.90
19437;DHT22;9854;50.968;4.168;2022-11-13T04:29:59;8.10;99.90
19437;DHT22;9854;50.968;4.168;2022-11-13T04:32:25;8.00;99.90
19437;DHT22;9854;50.968;4.168;2022-11-13T04:34:51;7.80;99.90
19437;DHT22;9854;50.968;4.168;2022-11-13T04:37:16;7.70;99.90
19437;DHT22;9854;50.968;4.168;2022-11-13T04:39:42;7.60;99.90
19437;DHT22;9854;50.968;4.168;2022-11-13T04:42:09;7.60;99.90
19437;DHT22;9854;50.968;4.168;2022-11-13T04:44:53;7.60;99.90
19437;DHT22;9854;50.968;4.168;2022-11-13T04:47:19;7.60;99.90
19437;DHT22;9854;50.968;4.168;2022-11-13T04:49:45;7.50;99.90
19437;DHT22;9854;50.968;4.168;2022-11-13T04:52:10;7.60;99.90
19437;DHT22;9854;50.968;4.168;2022-11-13T04:54:37;7.50;99.90
19437;DHT22;9854;50.968;4.168;2022-11-13T04:57:02;7.60;99.90
19437;DHT22;9854;50.968;4.168;2022-11-13T04:59:28;7.60;99.90
19437;DHT22;9854;50.968;4.168;2022-11-13T05:01:54;7.60;99.90
19437;DHT22;9854;50.968;4.168;2022-11-13T05:04:20;7.70;99.90
19437;DHT22;9854;50.968;4.168;2022-11-13T05:06:46;7.80;99.90
19437;DHT22;9854;50.968;4.168;2022-11-13T05:09:11;7.80;99.90
19437;DHT22;9854;50.968;4.168;2022-11-13T05:11:37;7.80;99.90
19437;DHT22;9854;50.968;4.168;2022-11-13T05:14:04;7.90;99.90
19437;DHT22;9854;50.968;4.168;2022-11-13T05:16:29;7.80;99.90
19437;DHT22;9854;50.968;4.168;2022-11-13T05:18:57;7.80;99.90
19437;DHT22;9854;50.968;4.168;2022-11-13T05:21:23;7.80;99.90
19437;DHT22;9854;50.968;4.168;2022-11-13T05:23:49;7.80;99.90
19437;DHT22;9854;50.968;4.168;2022-11-13T05:26:14;7.90;99.90
19437;DHT22;9854;50.968;4.168;2022-11-13T05:28:40;7.80;99.90
19437;DHT22;9854;50.968;4.168;2022-11-13T05:31:10;7.80;99.90
19437;DHT22;9854;50.968;4.168;2022-11-13T05:33:37;7.80;99.90
19437;DHT22;9854;50.968;4.168;2022-11-13T05:36:08;7.80;99.90
19437;DHT22;9854;50.968;4.168;2022-11-13T05:38:35;7.70;99.90
19437;DHT22;9854;50.968;4.168;2022-11-13T05:41:05;7.70;99.90
19437;DHT22;9854;50.968;4.168;2022-11-13T05:43:32;7.70;99.90
19437;DHT22;9854;50.968;4.168;2022-11-13T05:46:12;7.60;99.90
19437;DHT22;9854;50.968;4.168;2022-11-13T05:48:38;7.60;99.90
19437;DHT22;9854;50.968;4.168;2022-11-13T05:51:07;7.40;99.90
19437;DHT22;9854;50.968;4.168;2022-11-13T05:53:34;7.40;99.90
19437;DHT22;9854;50.968;4.168;2022-11-13T05:56:05;7.30;99.90
19437;DHT22;9854;50.968;4.168;2022-11-13T05:58:32;7.40;99.90
19437;DHT22;9854;50.968;4.168;2022-11-13T06:01:18;7.40;99.90
19437;DHT22;9854;50.968;4.168;2022-11-13T06:03:44;7.40;99.90
19437;DHT22;9854;50.968;4.168;2022-11-13T06:06:14;7.30;99.90
19437;DHT22;9854;50.968;4.168;2022-11-13T06:08:40;7.20;99.90
19437;DHT22;9854;50.968;4.168;2022-11-13T06:11:11;7.20;99.90
19437;DHT22;9854;50.968;4.168;2022-11-13T06:13:38;7.20;99.90
19437;DHT22;9854;50.968;4.168;2022-11-13T06:16:15;7.20;99.90
19437;DHT22;9854;50.968;4.168;2022-11-13T06:18:42;7.20;99.90
19437;DHT22;9854;50.968;4.168;2022-11-13T06:21:11;7.30;99.90
19437;DHT22;9854;50.968;4.168;2022-11-13T06:23:38;7.30;99.90
19437;DHT22;9854;50.968;4.168;2022-11-13T06:26:12;7.20;99.90
19437;DHT22;9854;50.968;4.168;2022-11-13T06:28:38;7.00;99.90
19437;DHT22;9854;50.968;4.168;2022-11-13T06:31:06;6.90;99.90
19437;DHT22;9854;50.968;4.168;2022-11-13T06:33:32;6.90;99.90
19437;DHT22;9854;50.968;4.168;2022-11-13T06:36:01;7.00;99.90
19437;DHT22;9854;50.968;4.168;2022-11-13T06:38:33;6.90;99.90
19437;DHT22;9854;50.968;4.168;2022-11-13T06:40:59;6.80;99.90
19437;DHT22;9854;50.968;4.168;2022-11-13T06:43:25;6.90;99.90
19437;DHT22;9854;50.968;4.168;2022-11-13T06:45:52;7.00;99.90
19437;DHT22;9854;50.968;4.168;2022-11-13T06:48:17;6.90;99.90
19437;DHT22;9854;50.968;4.168;2022-11-13T06:50:43;7.00;99.90
19437;DHT22;9854;50.968;4.168;2022-11-13T06:53:09;7.00;99.90
19437;DHT22;9854;50.968;4.168;2022-11-13T06:55:35;7.00;99.90
19437;DHT22;9854;50.968;4.168;2022-11-13T06:58:00;6.90;99.90
19437;DHT22;9854;50.968;4.168;2022-11-13T07:00:26;6.90;99.90
19437;DHT22;9854;50.968;4.168;2022-11-13T07:02:52;6.90;99.90
19437;DHT22;9854;50.968;4.168;2022-11-13T07:05:17;7.00;99.90
19437;DHT22;9854;50.968;4.168;2022-11-13T07:07:43;7.00;99.90
19437;DHT22;9854;50.968;4.168;2022-11-13T07:10:08;7.00;99.90
19437;DHT22;9854;50.968;4.168;2022-11-13T07:12:34;6.90;99.90
19437;DHT22;9854;50.968;4.168;2022-11-13T07:15:00;6.80;99.90
19437;DHT22;9854;50.968;4.168;2022-11-13T07:17:27;6.90;99.90
19437;DHT22;9854;50.968;4.168;2022-11-13T07:19:53;6.80;99.90
19437;DHT22;9854;50.968;4.168;2022-11-13T07:22:18;6.70;99.90
19437;DHT22;9854;50.968;4.168;2022-11-13T07:24:44;6.70;99.90
19437;DHT22;9854;50.968;4.168;2022-11-13T07:27:10;6.70;99.90
19437;DHT22;9854;50.968;4.168;2022-11-13T07:29:35;6.80;99.90
19437;DHT22;9854;50.968;4.168;2022-11-13T07:32:03;6.90;99.90
19437;DHT22;9854;50.968;4.168;2022-11-13T07:34:29;7.20;99.90
19437;DHT22;9854;50.968;4.168;2022-11-13T07:36:54;7.10;99.90
19437;DHT22;9854;50.968;4.168;2022-11-13T07:39:20;7.00;99.90
19437;DHT22;9854;50.968;4.168;2022-11-13T07:41:46;7.00;99.90
19437;DHT22;9854;50.968;4.168;2022-11-13T07:44:12;7.10;99.90
19437;DHT22;9854;50.968;4.168;2022-11-13T07:46:37;7.10;99.90
19437;DHT22;9854;50.968;4.168;2022-11-13T07:49:03;7.30;99.90
19437;DHT22;9854;50.968;4.168;2022-11-13T07:51:29;7.20;99.90
19437;DHT22;9854;50.968;4.168;2022-11-13T07:53:55;7.20;99.90
19437;DHT22;9854;50.968;4.168;2022-11-13T07:56:21;7.30;99.90
19437;DHT22;9854;50.968;4.168;2022-11-13T07:58:47;7.40;99.90
19437;DHT22;9854;50.968;4.168;2022-11-13T08:01:13;7.40;99.90
19437;DHT22;9854;50.968;4.168;2022-11-13T08:03:39;7.40;99.90
19437;DHT22;9854;50.968;4.168;2022-11-13T08:06:06;7.40;99.90
19437;DHT22;9854;50.968;4.168;2022-11-13T08:08:33;7.40;99.90
19437;DHT22;9854;50.968;4.168;2022-11-13T08:11:05;7.50;99.90
19437;DHT22;9854;50.968;4.168;2022-11-13T08:13:32;7.40;99.90
19437;DHT22;9854;50.968;4.168;2022-11-13T08:15:59;7.50;99.90
19437;DHT22;9854;50.968;4.168;2022-11-13T08:18:26;7.60;99.90
19437;DHT22;9854;50.968;4.168;2022-11-13T08:20:53;7.60;99.90
19437;DHT22;9854;50.968;4.168;2022-11-13T08:23:18;7.70;99.90
19437;DHT22;9854;50.968;4.168;2022-11-13T08:25:44;7.70;99.90
19437;DHT22;9854;50.968;4.168;2022-11-13T08:28:09;7.80;99.90
19437;DHT22;9854;50.968;4.168;2022-11-13T08:30:36;7.90;99.90
19437;DHT22;9854;50.968;4.168;2022-11-13T08:33:02;7.90;99.90
19437;DHT22;9854;50.968;4.168;2022-11-13T08:35:28;8.00;99.90
19437;DHT22;9854;50.968;4.168;2022-11-13T08:37:54;8.10;99.90
19437;DHT22;9854;50.968;4.168;2022-11-13T08:40:19;8.20;99.90
19437;DHT22;9854;50.968;4.168;2022-11-13T08:42:45;8.30;99.90
19437;DHT22;9854;50.968;4.168;2022-11-13T08:45:11;8.30;99.90
19437;DHT22;9854;50.968;4.168;2022-11-13T08:47:37;8.40;99.90
19437;DHT22;9854;50.968;4.168;2022-11-13T08:50:04;8.50;99.90
19437;DHT22;9854;50.968;4.168;2022-11-13T08:52:30;8.50;99.90
19437;DHT22;9854;50.968;4.168;2022-11-13T08:54:55;8.60;99.90
19437;DHT22;9854;50.968;4.168;2022-11-13T08:57:21;8.70;99.90
19437;DHT22;9854;50.968;4.168;2022-11-13T08:59:47;8.80;99.90
19437;DHT22;9854;50.968;4.168;2022-11-13T09:02:14;8.90;99.90
19437;DHT22;9854;50.968;4.168;2022-11-13T09:04:40;9.00;99.90
19437;DHT22;9854;50.968;4.168;2022-11-13T09:07:06;9.10;99.90
19437;DHT22;9854;50.968;4.168;2022-11-13T09:09:32;9.20;99.90
19437;DHT22;9854;50.968;4.168;2022-11-13T09:11:59;9.40;99.90
19437;DHT22;9854;50.968;4.168;2022-11-13T09:14:24;9.50;99.90
19437;DHT22;9854;50.968;4.168;2022-11-13T09:16:50;9.60;99.90
19437;DHT22;9854;50.968;4.168;2022-11-13T09:19:16;9.70;99.90
19437;DHT22;9854;50.968;4.168;2022-11-13T09:21:41;9.80;99.90
19437;DHT22;9854;50.968;4.168;2022-11-13T09:24:07;9.90;99.90
19437;DHT22;9854;50.968;4.168;2022-11-13T09:26:34;10.00;99.90
19437;DHT22;9854;50.968;4.168;2022-11-13T09:29:00;10.20;99.90
19437;DHT22;9854;50.968;4.168;2022-11-13T09:31:26;10.30;99.90
19437;DHT22;9854;50.968;4.168;2022-11-13T09:33:51;10.40;99.90
19437;DHT22;9854;50.968;4.168;2022-11-13T09:36:17;10.50;99.90
19437;DHT22;9854;50.968;4.168;2022-11-13T09:38:42;10.50;99.90
19437;DHT22;9854;50.968;4.168;2022-11-13T09:41:24;10.50;99.90
19437;DHT22;9854;50.968;4.168;2022-11-13T09:43:53;10.50;99.90
19437;DHT22;9854;50.968;4.168;2022-11-13T09:46:35;10.50;99.90
19437;DHT22;9854;50.968;4.168;2022-11-13T09:51:40;10.50;99.90
19437;DHT22;9854;50.968;4.168;2022-11-13T09:54:12;10.50;99.90
19437;DHT22;9854;50.968;4.168;2022-11-13T09:56:59;10.60;99.90
19437;DHT22;9854;50.968;4.168;2022-11-13T09:59:36;10.60;99.90
19437;DHT22;9854;50.968;4.168;2022-11-13T10:10:45;10.90;99.90
19437;DHT22;9854;50.968;4.168;2022-11-13T10:13:27;10.90;99.90
19437;DHT22;9854;50.968;4.168;2022-11-13T10:16:04;11.00;99.90
19437;DHT22;9854;50.968;4.168;2022-11-13T10:18:34;11.00;99.90
19437;DHT22;9854;50.968;4.168;2022-11-13T10:23:54;11.10;99.90
19437;DHT22;9854;50.968;4.168;2022-11-13T10:26:22;11.20;99.90
19437;DHT22;9854;50.968;4.168;2022-11-13T10:28:57;11.20;99.90
19437;DHT22;9854;50.968;4.168;2022-11-13T10:31:23;11.30;99.90
19437;DHT22;9854;50.968;4.168;2022-11-13T10:33:51;11.40;99.90
19437;DHT22;9854;50.968;4.168;2022-11-13T10:36:53;11.50;99.90
19437;DHT22;9854;50.968;4.168;2022-11-13T10:39:20;11.70;99.90
19437;DHT22;9854;50.968;4.168;2022-11-13T10:41:50;11.70;99.90
19437;DHT22;9854;50.968;4.168;2022-11-13T10:44:33;11.90;99.90
19437;DHT22;9854;50.968;4.168;2022-11-13T10:47:15;12.00;99.90
19437;DHT22;9854;50.968;4.168;2022-11-13T10:49:41;12.10;99.90
19437;DHT22;9854;50.968;4.168;2022-11-13T10:52:25;12.30;99.90
19437;DHT22;9854;50.968;4.168;2022-11-13T10:55:12;12.50;99.90
19437;DHT22;9854;50.968;4.168;2022-11-13T10:57:38;12.80;99.90
19437;DHT22;9854;50.968;4.168;2022-11-13T11:00:34;13.00;99.90
19437;DHT22;9854;50.968;4.168;2022-11-13T11:03:00;13.20;99.90
19437;DHT22;9854;50.968;4.168;2022-11-13T11:05:27;13.40;99.90
19437;DHT22;9854;50.968;4.168;2022-11-13T11:07:54;13.80;99.90
19437;DHT22;9854;50.968;4.168;2022-11-13T11:10:32;13.90;99.90
19437;DHT22;9854;50.968;4.168;2022-11-13T11:13:07;13.90;99.90
19437;DHT22;9854;50.968;4.168;2022-11-13T11:15:58;13.70;99.90
19437;DHT22;9854;50.968;4.168;2022-11-13T11:18:28;13.70;99.90
19437;DHT22;9854;50.968;4.168;2022-11-13T11:21:00;13.60;99.90
19437;DHT22;9854;50.968;4.168;2022-11-13T11:26:10;13.80;99.90
19437;DHT22;9854;50.968;4.168;2022-11-13T11:31:30;14.10;99.90
19437;DHT22;9854;50.968;4.168;2022-11-13T11:34:16;14.20;99.90
19437;DHT22;9854;50.968;4.168;2022-11-13T11:39:40;14.30;99.90
19437;DHT22;9854;50.968;4.168;2022-11-13T11:43:02;14.30;99.90
19437;DHT22;9854;50.968;4.168;2022-11-13T11:45:19;14.30;99.90
19437;DHT22;9854;50.968;4.168;2022-11-13T11:47:48;14.50;99.90
19437;DHT22;9854;50.968;4.168;2022-11-13T11:50:16;14.50;99.90
19437;DHT22;9854;50.968;4.168;2022-11-13T12:00:46;14.70;99.90
19437;DHT22;9854;50.968;4.168;2022-11-13T12:09:25;14.80;99.90
19437;DHT22;9854;50.968;4.168;2022-11-13T12:12:29;15.10;99.90
19437;DHT22;9854;50.968;4.168;2022-11-13T12:15:08;15.40;99.90
19437;DHT22;9854;50.968;4.168;2022-11-13T12:26:25;16.40;99.90
19437;DHT22;9854;50.968;4.168;2022-11-13T12:36:57;16.90;99.90
19437;DHT22;9854;50.968;4.168;2022-11-13T12:39:43;17.00;99.90
19437;DHT22;9854;50.968;4.168;2022-11-13T12:42:51;17.10;99.90
19437;DHT22;9854;50.968;4.168;2022-11-13T12:45:22;17.20;99.90
19437;DHT22;9854;50.968;4.168;2022-11-13T12:47:50;17.20;99.90
19437;DHT22;9854;50.968;4.168;2022-11-13T12:50:28;17.30;99.90
19437;DHT22;9854;50.968;4.168;2022-11-13T12:55:27;17.40;99.90
19437;DHT22;9854;50.968;4.168;2022-11-13T12:57:53;17.40;99.90
19437;DHT22;9854;50.968;4.168;2022-11-13T13:00:26;17.50;99.90
19437;DHT22;9854;50.968;4.168;2022-11-13T13:09:20;17.40;99.90
19437;DHT22;9854;50.968;4.168;2022-11-13T13:15:06;17.50;99.90
19437;DHT22;9854;50.968;4.168;2022-11-13T13:17:35;17.40;99.90
19437;DHT22;9854;50.968;4.168;2022-11-13T13:20:28;17.20;99.90
19437;DHT22;9854;50.968;4.168;2022-11-13T13:22:57;17.20;99.90
19437;DHT22;9854;50.968;4.168;2022-11-13T13:25:32;17.40;99.90
19437;DHT22;9854;50.968;4.168;2022-11-13T13:28:16;17.60;99.90
19437;DHT22;9854;50.968;4.168;2022-11-13T13:36:42;17.90;99.90
19437;DHT22;9854;50.968;4.168;2022-11-13T13:39:29;18.00;99.90
19437;DHT22;9854;50.968;4.168;2022-11-13T13:44:56;18.10;99.90
19437;DHT22;9854;50.968;4.168;2022-11-13T13:47:37;18.20;99.90
19437;DHT22;9854;50.968;4.168;2022-11-13T13:50:06;18.20;99.90
19437;DHT22;9854;50.968;4.168;2022-11-13T13:52:34;18.20;99.90
19437;DHT22;9854;50.968;4.168;2022-11-13T13:55:05;18.40;99.90
19437;DHT22;9854;50.968;4.168;2022-11-13T13:57:32;18.50;99.90
19437;DHT22;9854;50.968;4.168;2022-11-13T13:59:59;18.60;99.90
19437;DHT22;9854;50.968;4.168;2022-11-13T14:02:25;18.60;99.90
19437;DHT22;9854;50.968;4.168;2022-11-13T14:04:53;18.70;99.90
19437;DHT22;9854;50.968;4.168;2022-11-13T14:07:26;18.80;99.90
19437;DHT22;9854;50.968;4.168;2022-11-13T14:10:06;18.90;99.90
19437;DHT22;9854;50.968;4.168;2022-11-13T14:12:32;18.80;99.90
19437;DHT22;9854;50.968;4.168;2022-11-13T14:14:58;18.80;99.90
19437;DHT22;9854;50.968;4.168;2022-11-13T14:17:23;18.80;99.90
19437;DHT22;9854;50.968;4.168;2022-11-13T14:19:54;18.90;99.90
19437;DHT22;9854;50.968;4.168;2022-11-13T14:22:20;18.90;99.90
19437;DHT22;9854;50.968;4.168;2022-11-13T14:24:56;18.90;99.90
19437;DHT22;9854;50.968;4.168;2022-11-13T14:27:25;18.90;99.90
19437;DHT22;9854;50.968;4.168;2022-11-13T14:29:57;18.90;99.90
19437;DHT22;9854;50.968;4.168;2022-11-13T14:32:27;19.00;99.90
19437;DHT22;9854;50.968;4.168;2022-11-13T14:34:56;19.00;99.90
19437;DHT22;9854;50.968;4.168;2022-11-13T14:37:32;19.00;99.90
19437;DHT22;9854;50.968;4.168;2022-11-13T14:40:01;19.00;99.90
19437;DHT22;9854;50.968;4.168;2022-11-13T14:42:30;18.90;99.90
19437;DHT22;9854;50.968;4.168;2022-11-13T14:47:36;18.90;99.90
19437;DHT22;9854;50.968;4.168;2022-11-13T14:50:20;18.90;99.90
19437;DHT22;9854;50.968;4.168;2022-11-13T14:52:58;19.00;99.90
19437;DHT22;9854;50.968;4.168;2022-11-13T14:55:31;18.90;99.90
19437;DHT22;9854;50.968;4.168;2022-11-13T14:57:57;18.80;99.90
19437;DHT22;9854;50.968;4.168;2022-11-13T15:00:31;18.60;99.90
19437;DHT22;9854;50.968;4.168;2022-11-13T15:02:58;18.60;99.90
19437;DHT22;9854;50.968;4.168;2022-11-13T15:05:24;18.60;99.90
19437;DHT22;9854;50.968;4.168;2022-11-13T15:07:52;18.60;99.90
19437;DHT22;9854;50.968;4.168;2022-11-13T15:10:20;18.80;99.90
19437;DHT22;9854;50.968;4.168;2022-11-13T15:12:46;18.70;99.90
19437;DHT22;9854;50.968;4.168;2022-11-13T15:15:15;18.50;99.90
19437;DHT22;9854;50.968;4.168;2022-11-13T15:17:43;18.20;99.90
19437;DHT22;9854;50.968;4.168;2022-11-13T15:20:24;17.90;99.90
19437;DHT22;9854;50.968;4.168;2022-11-13T15:22:51;17.70;99.90
19437;DHT22;9854;50.968;4.168;2022-11-13T15:25:19;17.40;99.90
19437;DHT22;9854;50.968;4.168;2022-11-13T15:27:45;17.20;99.90
19437;DHT22;9854;50.968;4.168;2022-11-13T15:30:11;17.00;99.90
19437;DHT22;9854;50.968;4.168;2022-11-13T15:32:38;16.70;99.90
19437;DHT22;9854;50.968;4.168;2022-11-13T15:35:05;16.50;99.90
19437;DHT22;9854;50.968;4.168;2022-11-13T15:37:31;16.30;99.90
19437;DHT22;9854;50.968;4.168;2022-11-13T15:39:57;16.10;99.90
19437;DHT22;9854;50.968;4.168;2022-11-13T15:42:35;16.00;99.90
19437;DHT22;9854;50.968;4.168;2022-11-13T15:45:02;15.80;99.90
19437;DHT22;9854;50.968;4.168;2022-11-13T15:47:35;15.70;99.90
19437;DHT22;9854;50.968;4.168;2022-11-13T15:50:01;15.50;99.90
19437;DHT22;9854;50.968;4.168;2022-11-13T15:52:31;15.30;99.90
19437;DHT22;9854;50.968;4.168;2022-11-13T15:54:59;15.20;99.90
19437;DHT22;9854;50.968;4.168;2022-11-13T15:57:26;15.00;99.90
19437;DHT22;9854;50.968;4.168;2022-11-13T15:59:52;14.90;99.90
19437;DHT22;9854;50.968;4.168;2022-11-13T16:02:18;14.70;99.90
19437;DHT22;9854;50.968;4.168;2022-11-13T16:04:44;14.70;99.90
19437;DHT22;9854;50.968;4.168;2022-11-13T16:07:19;14.50;99.90
19437;DHT22;9854;50.968;4.168;2022-11-13T16:09:46;14.40;99.90
19437;DHT22;9854;50.968;4.168;2022-11-13T16:12:12;14.30;99.90
19437;DHT22;9854;50.968;4.168;2022-11-13T16:14:38;14.10;99.90
19437;DHT22;9854;50.968;4.168;2022-11-13T16:17:13;14.10;99.90
19437;DHT22;9854;50.968;4.168;2022-11-13T16:19:39;14.00;99.90
19437;DHT22;9854;50.968;4.168;2022-11-13T16:22:32;13.90;99.90
19437;DHT22;9854;50.968;4.168;2022-11-13T16:24:57;13.80;99.90
19437;DHT22;9854;50.968;4.168;2022-11-13T16:27:31;13.70;99.90
19437;DHT22;9854;50.968;4.168;2022-11-13T16:29:58;13.60;99.90
19437;DHT22;9854;50.968;4.168;2022-11-13T16:32:24;13.50;99.90
19437;DHT22;9854;50.968;4.168;2022-11-13T16:34:50;13.40;99.90
19437;DHT22;9854;50.968;4.168;2022-11-13T16:37:19;13.30;99.90
19437;DHT22;9854;50.968;4.168;2022-11-13T16:39:45;13.30;99.90
19437;DHT22;9854;50.968;4.168;2022-11-13T16:42:12;13.20;99.90
19437;DHT22;9854;50.968;4.168;2022-11-13T16:44:39;13.20;99.90
19437;DHT22;9854;50.968;4.168;2022-11-13T16:47:06;13.00;99.90
19437;DHT22;9854;50.968;4.168;2022-11-13T16:49:32;12.90;99.90
19437;DHT22;9854;50.968;4.168;2022-11-13T16:51:57;12.90;99.90
19437;DHT22;9854;50.968;4.168;2022-11-13T16:54:23;12.80;99.90
19437;DHT22;9854;50.968;4.168;2022-11-13T16:56:49;12.70;99.90
19437;DHT22;9854;50.968;4.168;2022-11-13T16:59:14;12.60;99.90
19437;DHT22;9854;50.968;4.168;2022-11-13T17:01:40;12.50;99.90
19437;DHT22;9854;50.968;4.168;2022-11-13T17:04:06;12.40;99.90
19437;DHT22;9854;50.968;4.168;2022-11-13T17:06:33;12.40;99.90
19437;DHT22;9854;50.968;4.168;2022-11-13T17:09:00;12.30;99.90
19437;DHT22;9854;50.968;4.168;2022-11-13T17:11:28;12.30;99.90
19437;DHT22;9854;50.968;4.168;2022-11-13T17:13:56;12.20;99.90
19437;DHT22;9854;50.968;4.168;2022-11-13T17:16:23;12.20;99.90
19437;DHT22;9854;50.968;4.168;2022-11-13T17:18:49;12.10;99.90
19437;DHT22;9854;50.968;4.168;2022-11-13T17:21:20;12.00;99.90
19437;DHT22;9854;50.968;4.168;2022-11-13T17:23:46;12.00;99.90
19437;DHT22;9854;50.968;4.168;2022-11-13T17:26:12;12.00;99.90